createdAt,value
2022-08-05T00:02:07.717Z,72.84
2022-08-05T00:04:42.460Z,73.17
2022-08-05T00:07:27.353Z,72.42
2022-08-05T00:10:06.977Z,72.59
2022-08-05T00:12:48.460Z,72.35
2022-08-05T00:15:55.496Z,72.40
2022-08-05T00:18:22.527Z,72.26
2022-08-05T00:20:54.025Z,72.63
2022-08-05T00:23:44.837Z,72.60
2022-08-05T00:26:21.071Z,72.60
2022-08-05T00:28:53.433Z,71.74
2022-08-05T00:31:54.008Z,72.27
2022-08-05T00:34:56.663Z,72.17
2022-08-05T00:37:13.845Z,71.53
2022-08-05T00:39:57.930Z,71.62
2022-08-05T00:42:41.612Z,71.23
2022-08-05T00:45:13.448Z,71.68
2022-08-05T00:48:05.742Z,71.05
2022-08-05T00:51:08.978Z,71.49
2022-08-05T00:54:48.488Z,71.36
2022-08-05T00:57:55.703Z,70.99
2022-08-05T01:00:27.635Z,70.78
2022-08-05T01:03:02.010Z,70.24
2022-08-05T01:10:16.989Z,70.93
2022-08-05T01:13:12.838Z,70.07
2022-08-05T01:15:52.490Z,70.61
2022-08-05T01:18:36.310Z,70.39
2022-08-05T01:21:13.822Z,70.36
2022-08-05T01:24:14.342Z,70.28
2022-08-05T01:26:50.849Z,69.24
2022-08-05T01:29:49.972Z,69.64
2022-08-05T01:32:27.682Z,68.89
2022-08-05T01:35:10.808Z,70.08
2022-08-05T01:37:54.623Z,69.65
2022-08-05T01:40:30.869Z,69.46
2022-08-05T01:43:05.281Z,70.14
2022-08-05T01:45:43.076Z,69.69
2022-08-05T01:48:15.312Z,68.98
2022-08-05T01:50:51.048Z,69.81
2022-08-05T01:53:55.035Z,69.51
2022-08-05T01:58:10.211Z,69.18
2022-08-05T01:59:13.357Z,69.72
2022-08-05T02:01:49.128Z,68.95
2022-08-05T02:04:22.173Z,67.85
2022-08-05T02:06:54.579Z,68.19
2022-08-05T02:09:26.880Z,68.59
2022-08-05T02:12:01.619Z,67.77
2022-08-05T02:14:55.526Z,66.35
2022-08-05T02:18:31.562Z,69.52
2022-08-05T02:21:15.372Z,69.32
2022-08-05T02:23:53.346Z,69.97
2022-08-05T02:26:27.542Z,69.84
2022-08-05T02:28:59.407Z,68.02
2022-08-05T02:31:34.547Z,69.41
2022-08-05T02:34:15.006Z,69.54
2022-08-05T02:36:58.213Z,69.34
2022-08-05T02:39:36.152Z,68.98
2022-08-05T02:42:25.717Z,67.02
2022-08-05T02:44:59.414Z,66.39
2022-08-05T02:48:06.811Z,68.73
2022-08-05T02:50:29.931Z,67.11
2022-08-05T02:53:01.692Z,67.24
2022-08-05T02:55:53.744Z,69.03
2022-08-05T02:58:27.278Z,68.84
2022-08-05T03:01:01.828Z,66.97
2022-08-05T03:04:02.568Z,67.70
2022-08-05T03:06:54.424Z,65.83
2022-08-05T03:09:18.001Z,65.95
2022-08-05T03:12:08.116Z,67.71
2022-08-05T03:14:45.647Z,68.39
2022-08-05T03:17:16.788Z,68.66
2022-08-05T03:19:46.679Z,68.34
2022-08-05T03:22:32.547Z,67.69
2022-08-05T03:25:11.668Z,67.39
2022-08-05T03:28:00.966Z,68.36
2022-08-05T03:30:35.421Z,68.02
2022-08-05T03:33:08.748Z,68.31
2022-08-05T03:35:41.241Z,68.48
2022-08-05T03:38:15.955Z,68.37
2022-08-05T03:40:48.764Z,67.86
2022-08-05T03:44:09.829Z,67.62
2022-08-05T03:46:10.843Z,65.75
2022-08-05T03:48:45.307Z,67.08
2022-08-05T03:52:37.042Z,68.05
2022-08-05T03:55:53.224Z,68.36
2022-08-05T03:57:44.346Z,67.92
2022-08-05T04:00:19.811Z,67.64
2022-08-05T04:02:58.925Z,67.73
2022-08-05T04:12:24.734Z,68.06
2022-08-05T04:18:00.128Z,67.34
2022-08-05T04:22:05.857Z,67.91
2022-08-05T04:24:28.240Z,67.91
2022-08-05T04:27:41.836Z,66.29
2022-08-05T04:30:36.818Z,67.40
2022-08-05T04:34:18.181Z,67.63
2022-08-05T04:36:46.191Z,66.03
2022-08-05T04:39:52.754Z,66.92
2022-08-05T04:45:48.981Z,65.99
2022-08-05T04:49:24.807Z,67.77
2022-08-05T04:52:05.690Z,66.58
2022-08-05T04:54:49.439Z,65.25
2022-08-05T05:00:58.928Z,65.90
2022-08-05T05:03:41.888Z,65.39
2022-08-05T05:06:39.919Z,66.81
2022-08-05T05:09:30.439Z,66.52
2022-08-05T05:12:45.593Z,66.99
2022-08-05T05:15:56.568Z,65.35
2022-08-05T05:18:33.363Z,66.20
2022-08-05T05:21:11.628Z,66.38
2022-08-05T05:24:03.919Z,66.32
2022-08-05T05:26:38.527Z,65.78
2022-08-05T05:29:21.911Z,63.75
2022-08-05T05:32:12.535Z,65.48
2022-08-05T05:35:00.275Z,64.59
2022-08-05T05:37:45.503Z,64.22
2022-08-05T05:40:28.226Z,64.74
2022-08-05T05:47:04.355Z,64.36
2022-08-05T05:49:57.008Z,63.68
2022-08-05T05:56:00.908Z,64.08
2022-08-05T05:59:07.968Z,64.03
2022-08-05T06:05:42.141Z,63.48
2022-08-05T06:11:19.890Z,62.75
2022-08-05T06:17:22.513Z,63.22
2022-08-05T06:20:06.336Z,59.88
2022-08-05T06:22:57.257Z,61.14
2022-08-05T06:26:20.659Z,62.95
2022-08-05T06:29:42.932Z,61.63
2022-08-05T06:32:29.135Z,56.42
2022-08-05T06:38:46.920Z,60.49
2022-08-05T06:48:44.067Z,60.22
2022-08-05T06:54:31.296Z,60.75
2022-08-05T06:57:57.303Z,59.13
2022-08-05T07:03:22.132Z,57.86
2022-08-05T07:06:32.433Z,59.78
2022-08-05T07:09:15.419Z,60.86
2022-08-05T07:11:56.916Z,58.75
2022-08-05T07:15:06.441Z,60.30
2022-08-05T07:18:09.118Z,59.66
2022-08-05T07:21:06.291Z,56.85
2022-08-05T07:23:50.077Z,57.40
2022-08-05T07:26:32.840Z,56.07
2022-08-05T07:30:22.267Z,58.09
2022-08-05T07:32:38.944Z,59.24
2022-08-05T07:36:04.593Z,54.62
2022-08-05T07:38:33.288Z,53.91
2022-08-05T07:42:13.331Z,55.26
2022-08-05T07:44:52.262Z,52.21
2022-08-05T07:47:55.733Z,53.46
2022-08-05T07:50:56.426Z,56.62
2022-08-05T07:53:50.328Z,51.09
2022-08-05T07:57:14.012Z,57.02
2022-08-05T08:00:17.266Z,55.63
2022-08-05T08:03:44.066Z,55.19
2022-08-05T08:06:37.487Z,54.43
2022-08-05T08:12:49.700Z,56.05
2022-08-05T08:20:45.230Z,58.13
2022-08-05T08:24:01.800Z,54.79
2022-08-05T08:26:30.576Z,51.34
2022-08-05T08:29:45.575Z,53.60
2022-08-05T08:32:25.985Z,51.71
2022-08-05T08:38:35.513Z,56.31
2022-08-05T08:41:52.671Z,55.33
2022-08-05T08:45:43.994Z,56.19
2022-08-05T08:49:03.078Z,53.78
2022-08-05T08:52:04.052Z,54.98
2022-08-05T08:54:51.123Z,53.00
2022-08-05T08:57:48.284Z,52.83
2022-08-05T09:04:10.653Z,53.04
2022-08-05T09:06:49.850Z,52.23
2022-08-05T09:09:34.598Z,51.38
2022-08-05T09:12:20.280Z,53.30
2022-08-05T09:15:08.125Z,52.64
2022-08-05T09:18:09.031Z,55.00
2022-08-05T09:20:47.655Z,49.56
2022-08-05T09:23:43.948Z,50.24
2022-08-05T09:26:43.839Z,50.94
2022-08-05T09:29:31.105Z,48.91
2022-08-05T09:32:45.552Z,53.95
2022-08-05T09:38:29.386Z,50.15
2022-08-05T09:41:19.423Z,52.00
2022-08-05T09:43:56.814Z,51.54
2022-08-05T09:50:03.392Z,51.53
2022-08-05T09:52:45.079Z,51.66
2022-08-05T09:55:57.214Z,51.47
2022-08-05T09:58:17.730Z,54.47
2022-08-05T10:01:32.021Z,54.27
2022-08-05T10:04:28.518Z,54.35
2022-08-05T10:07:31.868Z,55.26
2022-08-05T10:10:32.334Z,55.28
2022-08-05T10:14:18.913Z,56.75
2022-08-05T10:17:04.382Z,54.26
2022-08-05T10:23:21.857Z,53.65
2022-08-05T10:26:51.732Z,53.36
2022-08-05T10:30:41.511Z,53.59
2022-08-05T10:32:53.917Z,52.15
2022-08-05T10:35:48.560Z,52.59
2022-08-05T10:38:46.106Z,53.00
2022-08-05T10:41:47.481Z,53.53
2022-08-05T10:44:41.963Z,54.87
2022-08-05T10:47:34.927Z,54.33
2022-08-05T10:50:20.459Z,53.69
2022-08-05T10:53:06.149Z,53.48
2022-08-05T10:56:38.417Z,55.49
2022-08-05T11:00:02.964Z,56.16
2022-08-05T11:08:57.553Z,53.50
2022-08-05T11:22:28.645Z,53.65
2022-08-05T11:26:04.215Z,55.03
2022-08-05T11:29:18.005Z,54.84
2022-08-05T11:32:44.781Z,55.32
2022-08-05T11:36:10.297Z,55.10
2022-08-05T11:39:00.332Z,55.10
2022-08-05T11:42:11.003Z,53.93
2022-08-05T11:44:56.055Z,54.71
2022-08-05T11:47:49.557Z,54.51
2022-08-05T12:05:08.154Z,53.93
2022-08-05T12:08:09.628Z,54.84
2022-08-05T12:11:10.355Z,55.12
2022-08-05T12:14:10.346Z,54.58
2022-08-05T12:16:49.370Z,54.86
2022-08-05T12:20:26.159Z,55.21
2022-08-05T12:22:14.140Z,55.19
2022-08-05T12:25:08.244Z,55.21
2022-08-05T12:27:53.413Z,55.55
2022-08-05T12:30:46.159Z,54.72
2022-08-05T12:33:36.322Z,54.78
2022-08-05T12:36:29.518Z,55.26
2022-08-05T12:42:58.777Z,55.32
2022-08-05T12:48:50.410Z,55.44
2022-08-05T12:54:55.583Z,55.74
2022-08-05T13:02:00.103Z,56.03
2022-08-05T13:04:27.628Z,55.60
2022-08-05T13:10:32.812Z,55.82
2022-08-05T13:14:05.103Z,55.77
2022-08-05T13:16:32.790Z,55.35
2022-08-05T13:19:13.253Z,55.24
2022-08-05T13:21:55.918Z,55.56
2022-08-05T13:24:51.094Z,55.74
2022-08-05T13:34:21.275Z,56.86
2022-08-05T13:37:07.344Z,56.07
2022-08-05T13:40:16.401Z,55.46
2022-08-05T13:43:22.362Z,56.54
2022-08-05T13:46:03.015Z,56.07
2022-08-05T13:48:58.519Z,55.69
2022-08-05T13:51:58.189Z,56.61
2022-08-05T13:57:50.871Z,56.23
2022-08-05T14:00:51.881Z,56.75
2022-08-05T14:03:47.468Z,57.05
2022-08-05T14:10:01.879Z,56.45
2022-08-05T14:12:54.583Z,56.80
2022-08-05T14:16:07.597Z,56.64
2022-08-05T14:19:16.171Z,56.29
2022-08-05T14:22:08.877Z,57.09
2022-08-05T14:24:54.748Z,58.42
2022-08-05T14:27:24.908Z,57.17
2022-08-05T14:30:05.679Z,57.36
2022-08-05T14:33:16.320Z,57.59
2022-08-05T14:36:48.640Z,57.63
2022-08-05T14:39:30.794Z,57.93
2022-08-05T14:42:36.910Z,58.03
2022-08-05T14:45:35.174Z,57.89
2022-08-05T14:48:33.324Z,57.61
2022-08-05T14:51:11.296Z,57.72
2022-08-05T14:54:27.800Z,57.90
2022-08-05T14:57:33.920Z,57.12
2022-08-05T15:00:33.122Z,57.88
2022-08-05T15:08:12.435Z,57.56
2022-08-05T15:13:46.288Z,57.58
2022-08-05T15:20:43.384Z,57.50
2022-08-05T15:27:43.078Z,57.79
2022-08-05T15:30:22.500Z,57.96
2022-08-05T15:33:05.453Z,58.15
2022-08-05T15:36:16.682Z,57.92
2022-08-05T15:41:02.955Z,58.09
2022-08-05T15:42:53.964Z,58.58
2022-08-05T15:45:41.018Z,58.50
2022-08-05T15:48:34.942Z,58.51
2022-08-05T15:51:19.370Z,58.73
2022-08-05T15:54:58.110Z,58.63
2022-08-05T15:57:49.764Z,60.03
2022-08-05T16:01:16.173Z,59.93
2022-08-05T16:04:10.553Z,59.78
2022-08-05T16:06:42.017Z,59.26
2022-08-05T16:09:14.654Z,59.12
2022-08-05T16:12:12.638Z,59.93
2022-08-05T16:14:43.680Z,60.55
2022-08-05T16:17:15.169Z,60.70
2022-08-05T16:20:04.368Z,60.95
2022-08-05T16:22:37.023Z,59.65
2022-08-05T16:25:11.252Z,61.92
2022-08-05T16:28:00.413Z,61.39
2022-08-05T16:30:36.311Z,62.04
2022-08-05T16:33:10.619Z,62.45
2022-08-05T16:35:43.023Z,62.72
2022-08-05T16:38:24.141Z,62.13
2022-08-05T16:42:12.187Z,61.88
2022-08-05T16:43:56.102Z,62.22
2022-08-05T16:46:27.793Z,62.37
2022-08-05T16:49:01.121Z,62.75
2022-08-05T16:52:17.293Z,62.32
2022-08-05T16:55:24.457Z,62.44
2022-08-05T16:59:07.959Z,62.93
2022-08-05T17:05:14.055Z,63.47
2022-08-05T17:32:59.701Z,63.68
2022-08-05T17:46:45.499Z,65.19
2022-08-05T17:49:24.168Z,64.41
2022-08-05T17:51:57.343Z,64.43
2022-08-05T17:54:27.972Z,65.01
2022-08-05T17:56:59.390Z,65.22
2022-08-05T17:59:30.914Z,64.66
2022-08-05T18:02:04.587Z,64.31
2022-08-05T18:04:51.191Z,64.32
2022-08-05T18:07:24.990Z,62.69
2022-08-05T18:10:09.990Z,63.47
2022-08-05T18:12:45.201Z,63.49
2022-08-05T18:15:18.581Z,62.67
2022-08-05T18:18:00.631Z,62.92
2022-08-05T18:20:34.809Z,64.07
2022-08-05T18:23:09.182Z,64.24
2022-08-05T18:25:45.081Z,64.37
2022-08-05T18:28:22.092Z,63.80
2022-08-05T18:31:02.389Z,63.61
2022-08-05T18:33:46.853Z,63.46
2022-08-05T18:36:19.558Z,63.16
2022-08-05T18:38:57.382Z,63.28
2022-08-05T18:41:57.941Z,63.95
2022-08-05T18:44:25.834Z,63.63
2022-08-05T18:47:07.263Z,64.02
2022-08-05T18:49:58.152Z,64.97
2022-08-05T18:52:38.327Z,65.08
2022-08-05T18:55:10.869Z,64.88
2022-08-05T18:57:49.870Z,64.95
2022-08-05T19:00:29.080Z,65.04
2022-08-05T19:03:04.142Z,65.26
2022-08-05T19:06:11.238Z,65.21
2022-08-05T19:08:30.482Z,65.44
2022-08-05T19:11:05.216Z,65.29
2022-08-05T19:13:38.808Z,65.39
2022-08-05T19:16:22.026Z,64.89
2022-08-05T19:18:58.869Z,65.32
2022-08-05T19:21:34.364Z,64.85
2022-08-05T19:24:13.047Z,64.73
2022-08-05T19:26:55.391Z,65.46
2022-08-05T19:29:36.006Z,65.39
2022-08-05T19:32:11.399Z,65.28
2022-08-05T19:34:55.115Z,65.69
2022-08-05T19:37:47.212Z,65.08
2022-08-05T19:40:24.331Z,65.31
2022-08-05T19:43:04.431Z,65.14
2022-08-05T19:45:37.798Z,64.43
2022-08-05T19:48:25.436Z,65.12
2022-08-05T19:50:56.639Z,64.23
2022-08-05T19:54:04.306Z,64.02
2022-08-05T19:56:29.897Z,64.39
2022-08-05T19:59:53.811Z,65.20
2022-08-05T20:02:00.708Z,65.61
2022-08-05T20:04:33.623Z,64.98
2022-08-05T20:07:04.690Z,65.13
2022-08-05T20:09:55.109Z,65.07
2022-08-05T20:12:28.314Z,65.32
2022-08-05T20:14:59.611Z,65.27
2022-08-05T20:17:30.828Z,64.87
2022-08-05T20:20:11.359Z,66.15
2022-08-05T20:22:42.123Z,65.86
2022-08-05T20:25:17.460Z,66.23
2022-08-05T20:27:48.282Z,66.35
2022-08-05T20:30:20.569Z,66.05
2022-08-05T20:32:57.582Z,65.50
2022-08-05T20:35:28.192Z,66.41
2022-08-05T20:38:05.858Z,66.26
2022-08-05T20:40:38.933Z,66.51
2022-08-05T20:43:14.306Z,66.53
2022-08-05T20:45:56.675Z,66.09
2022-08-05T20:48:28.355Z,65.63
2022-08-05T20:50:59.007Z,65.19
2022-08-05T20:53:41.000Z,65.17
2022-08-05T20:56:11.598Z,65.94
2022-08-05T20:58:42.202Z,66.14
2022-08-05T21:01:13.766Z,66.75
2022-08-05T21:03:48.126Z,65.90
2022-08-05T21:06:28.555Z,66.06
2022-08-05T21:09:00.490Z,65.28
2022-08-05T21:12:06.895Z,66.05
2022-08-05T21:14:21.767Z,66.21
2022-08-05T21:16:56.961Z,66.43
2022-08-05T21:19:27.047Z,66.67
2022-08-05T21:21:58.462Z,66.93
2022-08-05T21:24:28.767Z,67.15
2022-08-05T21:27:00.287Z,66.90
2022-08-05T21:29:32.554Z,67.28
2022-08-05T21:32:11.399Z,67.30
2022-08-05T21:34:55.986Z,67.27
2022-08-05T21:37:41.382Z,66.63
2022-08-05T21:40:14.115Z,67.43
2022-08-05T21:42:45.618Z,67.37
2022-08-05T21:45:24.612Z,67.53
2022-08-05T21:48:08.304Z,67.68
2022-08-05T21:50:38.887Z,67.76
2022-08-05T21:53:16.683Z,67.39
2022-08-05T21:56:05.781Z,67.44
2022-08-05T21:58:42.249Z,67.12
2022-08-05T22:01:23.848Z,67.24
2022-08-05T22:03:55.457Z,67.44
2022-08-05T22:06:35.373Z,67.34
2022-08-05T22:09:13.928Z,67.69
2022-08-05T22:11:46.926Z,67.42
2022-08-05T22:14:35.594Z,67.69
2022-08-05T22:17:08.570Z,67.38
2022-08-05T22:20:01.522Z,67.87
2022-08-05T22:22:29.854Z,67.36
2022-08-05T22:25:24.059Z,67.53
2022-08-05T22:28:12.105Z,67.83
2022-08-05T22:30:56.792Z,67.17
2022-08-05T22:33:57.228Z,67.07
2022-08-05T22:36:25.024Z,67.64
2022-08-05T22:38:55.452Z,68.14
2022-08-05T22:42:11.474Z,67.59
2022-08-05T22:44:19.430Z,68.15
2022-08-05T22:46:53.026Z,68.08
2022-08-05T22:50:19.303Z,68.63
2022-08-05T22:52:30.298Z,68.31
2022-08-05T22:55:19.399Z,68.37
2022-08-05T22:57:55.397Z,67.86
2022-08-05T23:00:26.617Z,68.21
2022-08-05T23:03:00.636Z,67.89
2022-08-05T23:05:35.883Z,68.50
2022-08-05T23:08:07.491Z,68.24
2022-08-05T23:10:44.547Z,67.91
2022-08-05T23:13:14.775Z,67.53
2022-08-05T23:15:44.913Z,67.74
2022-08-05T23:18:20.675Z,68.04
2022-08-05T23:20:53.175Z,67.58
2022-08-05T23:23:24.361Z,67.45
2022-08-05T23:26:00.989Z,67.79
2022-08-05T23:28:32.540Z,66.96
2022-08-05T23:31:17.439Z,67.53
2022-08-05T23:34:04.760Z,67.11
2022-08-05T23:36:40.149Z,66.69
2022-08-05T23:39:23.618Z,66.42
2022-08-05T23:42:08.678Z,66.14
2022-08-05T23:44:45.553Z,65.74
2022-08-05T23:47:25.372Z,66.17
2022-08-05T23:49:56.467Z,66.25
2022-08-05T23:52:37.644Z,66.76
2022-08-05T23:55:20.951Z,65.47
2022-08-05T23:57:52.879Z,65.21
